Wisaforest — PBGA — position and weather

sailwx.info

Track history (hours):
 
Tides and Currents Weather Stations Pressure Air Temp Water Temp Dewpoint Dewpoint Depression Visibility Wind Speed Wind Dir Waves Ship Positions

Wisaforest

Last reported at 2018-May-19 06:51 UTC. Time now 2018-Jun-19 20:21 UTC.
Position N 45°02' W 000°36'.
Warning: this ship's position is 31 days out of date.

Length 120 m; draft 7.4 m.

Type: Cargo ship. MMSI: 245096000.

Date/timePositionNaut miles runAvg speedWind from/ knotsBaromVisibWave heightAir tempDewpointWater temp
2018-May-19 06:51N 45°02' W 000°36'1813.7
2018-May-19 05:32N 45°18' W 000°46'014.5
2018-May-19 05:30N 45°19' W 000°46'714.0
2018-May-19 05:00N 45°25' W 000°51'714.7
2018-May-19 04:30N 45°30' W 000°58'713.5
2018-May-19 04:00N 45°36' W 001°04'611.6
2018-May-19 03:30N 45°39' W 001°10'510.4
2018-May-19 03:00N 45°38' W 001°18'5 9.1
2018-May-19 02:30N 45°36' W 001°23'5 9.4
2018-May-19 01:58N 45°33' W 001°29'3 6.9
2018-May-19 01:30N 45°32' W 001°33'4 7.7
2018-May-19 01:00N 45°32' W 001°28'11 6.1
2018-May-18 23:11N 45°30' W 001°44'2 9.6
2018-May-18 23:00N 45°29' W 001°46'5 9.6
2018-May-18 22:30N 45°27' W 001°52'5 9.2
2018-May-18 22:00N 45°25' W 001°58'5 8.9
2018-May-18 21:30N 45°24' W 002°04'4 9.1
2018-May-18 21:00N 45°22' W 002°10'5 9.4
2018-May-18 20:30N 45°20' W 002°17'5 9.3
2018-May-18 20:00N 45°19' W 002°23'5 9.2
2018-May-18 19:30N 45°17' W 002°29'5 9.4
2018-May-18 19:00N 45°16' W 002°35'5 9.5
2018-May-18 18:30N 45°14' W 002°41'5 9.5
2018-May-18 18:00N 45°12' W 002°48'5 9.8
2018-May-18 17:30N 45°11' W 002°54'5 9.6
2018-May-18 17:00N 45°09' W 003°01'  
2018-May-16 10:15N 39°46' W 009°50'2 9.6
2018-May-16 10:00N 39°43' W 009°50'5 9.7
2018-May-16 09:30N 39°38' W 009°50'5 9.5
2018-May-16 09:00N 39°34' W 009°51'5 9.8
2018-May-16 08:30N 39°29' W 009°51'8 9.5
2018-May-16 07:40N 39°21' W 009°51'2 9.1
2018-May-16 07:29N 39°19' W 009°51'4 9.0
2018-May-16 07:00N 39°15' W 009°51'5 9.4
2018-May-16 06:28N 39°10' W 009°51'4 9.5
2018-May-16 06:00N 39°05' W 009°51'5 9.5
2018-May-16 05:30N 39°01' W 009°51'5 9.7
2018-May-16 05:00N 38°56' W 009°51'5 9.8
2018-May-16 04:30N 38°51' W 009°51'5 9.7
2018-May-16 04:00N 38°46' W 009°51'5 9.8
2018-May-16 03:30N 38°41' W 009°49'5 9.6
2018-May-16 03:00N 38°37' W 009°48'5 9.7
2018-May-16 02:30N 38°34' W 009°43'510.1
2018-May-16 02:00N 38°32' W 009°37'510.2
2018-May-16 01:30N 38°29' W 009°32'510.5
2018-May-16 01:00N 38°26' W 009°26'510.9
2018-May-16 00:30N 38°23' W 009°20'510.6
2018-May-16 00:00N 38°21' W 009°14'510.3
2018-May-15 23:30N 38°22' W 009°08'611.9
2018-May-15 23:00N 38°25' W 009°01'5 9.0
2018-May-15 22:30N 38°28' W 008°57'4 7.0
2018-May-15 21:56N 38°29' W 008°52'3 7.9
2018-May-15 21:30N 38°28' W 008°48'1 0.4
2018-May-15 19:40N 38°28' W 008°47'0 0.0
2018-May-15 19:28N 38°28' W 008°47'0 0.0
2018-May-15 18:55N 38°28' W 008°47'0 0.0
2018-May-15 18:22N 38°28' W 008°47'0 0.0
2018-May-15 17:55N 38°28' W 008°47'0 0.0
2018-May-15 17:19N 38°28' W 008°47'0 0.0
2018-May-15 14:58N 38°28' W 008°47'0 0.0
2018-May-15 14:28N 38°28' W 008°47'0 0.0
2018-May-15 05:58N 38°28' W 008°47'0 0.0
2018-May-14 14:58N 38°28' W 008°47'0 0.0
2018-May-14 07:51N 38°28' W 008°47'0 0.7
2018-May-14 07:30N 38°28' W 008°47'4 7.2
2018-May-14 06:59N 38°29' W 008°52'3 6.8
2018-May-14 06:30N 38°29' W 008°56'3 6.8
2018-May-14 06:00N 38°27' W 008°59'4 8.2
2018-May-14 05:30N 38°23' W 009°01'4 8.0
2018-May-14 05:00N 38°19' W 009°03'4 7.9
2018-May-14 04:30N 38°16' W 009°06'4 7.9
2018-May-14 04:00N 38°12' W 009°08'4 7.8
2018-May-14 03:30N 38°09' W 009°11'4 8.3
2018-May-14 03:00N 38°06' W 009°13'510.9
2018-May-14 02:30N 38°01' W 009°17'510.7
2018-May-14 02:00N 37°56' W 009°20'510.5
2018-May-14 01:30N 37°52' W 009°23'510.5
2018-May-14 01:00N 37°47' W 009°26'510.1
2018-May-14 00:30N 37°42' W 009°30'4 8.3
2018-May-14 00:00N 37°39' W 009°31'  
2018-May-11 12:43N 28°31' W 014°43'210.9
2018-May-11 12:30N 28°29' W 014°44'611.1
2018-May-11 12:00N 28°24' W 014°47'611.2
2018-May-11 11:30N 28°19' W 014°49'711.3
2018-May-11 10:55N 28°13' W 014°52'511.1
2018-May-11 10:30N 28°08' W 014°54'510.9
2018-May-11 10:00N 28°03' W 014°56'611.0
2018-May-11 09:30N 27°58' W 014°58'510.9
2018-May-11 09:00N 27°53' W 015°01'  
Track history (hours):
 
Tides and Currents Weather Stations Pressure Air Temp Water Temp Dewpoint Dewpoint Depression Visibility Wind Speed Wind Dir Waves Ship Positions

Wisaforest

Last reported at 2018-May-19 06:51 UTC. Time now 2018-Jun-19 20:21 UTC.
Position N 45°02' W 000°36'.
Warning: this ship's position is 31 days out of date.

Length 120 m; draft 7.4 m.

Type: Cargo ship. MMSI: 245096000.

Date/timePositionNaut miles runAvg speedWind from/ knotsBaromVisibWave heightAir tempDewpointWater temp
2018-May-19 06:51N 45°02' W 000°36'1813.7
2018-May-19 05:32N 45°18' W 000°46'014.5
2018-May-19 05:30N 45°19' W 000°46'714.0
2018-May-19 05:00N 45°25' W 000°51'714.7
2018-May-19 04:30N 45°30' W 000°58'713.5
2018-May-19 04:00N 45°36' W 001°04'611.6
2018-May-19 03:30N 45°39' W 001°10'510.4
2018-May-19 03:00N 45°38' W 001°18'5 9.1
2018-May-19 02:30N 45°36' W 001°23'5 9.4
2018-May-19 01:58N 45°33' W 001°29'3 6.9
2018-May-19 01:30N 45°32' W 001°33'4 7.7
2018-May-19 01:00N 45°32' W 001°28'11 6.1
2018-May-18 23:11N 45°30' W 001°44'2 9.6
2018-May-18 23:00N 45°29' W 001°46'5 9.6
2018-May-18 22:30N 45°27' W 001°52'5 9.2
2018-May-18 22:00N 45°25' W 001°58'5 8.9
2018-May-18 21:30N 45°24' W 002°04'4 9.1
2018-May-18 21:00N 45°22' W 002°10'5 9.4
2018-May-18 20:30N 45°20' W 002°17'5 9.3
2018-May-18 20:00N 45°19' W 002°23'5 9.2
2018-May-18 19:30N 45°17' W 002°29'5 9.4
2018-May-18 19:00N 45°16' W 002°35'5 9.5
2018-May-18 18:30N 45°14' W 002°41'5 9.5
2018-May-18 18:00N 45°12' W 002°48'5 9.8
2018-May-18 17:30N 45°11' W 002°54'5 9.6
2018-May-18 17:00N 45°09' W 003°01'  
2018-May-16 10:15N 39°46' W 009°50'2 9.6
2018-May-16 10:00N 39°43' W 009°50'5 9.7
2018-May-16 09:30N 39°38' W 009°50'5 9.5
2018-May-16 09:00N 39°34' W 009°51'5 9.8
2018-May-16 08:30N 39°29' W 009°51'8 9.5
2018-May-16 07:40N 39°21' W 009°51'2 9.1
2018-May-16 07:29N 39°19' W 009°51'4 9.0
2018-May-16 07:00N 39°15' W 009°51'5 9.4
2018-May-16 06:28N 39°10' W 009°51'4 9.5
2018-May-16 06:00N 39°05' W 009°51'5 9.5
2018-May-16 05:30N 39°01' W 009°51'5 9.7
2018-May-16 05:00N 38°56' W 009°51'5 9.8
2018-May-16 04:30N 38°51' W 009°51'5 9.7
2018-May-16 04:00N 38°46' W 009°51'5 9.8
2018-May-16 03:30N 38°41' W 009°49'5 9.6
2018-May-16 03:00N 38°37' W 009°48'5 9.7
2018-May-16 02:30N 38°34' W 009°43'510.1
2018-May-16 02:00N 38°32' W 009°37'510.2
2018-May-16 01:30N 38°29' W 009°32'510.5
2018-May-16 01:00N 38°26' W 009°26'510.9
2018-May-16 00:30N 38°23' W 009°20'510.6
2018-May-16 00:00N 38°21' W 009°14'510.3
2018-May-15 23:30N 38°22' W 009°08'611.9
2018-May-15 23:00N 38°25' W 009°01'5 9.0
2018-May-15 22:30N 38°28' W 008°57'4 7.0
2018-May-15 21:56N 38°29' W 008°52'3 7.9
2018-May-15 21:30N 38°28' W 008°48'1 0.4
2018-May-15 19:40N 38°28' W 008°47'0 0.0
2018-May-15 19:28N 38°28' W 008°47'0 0.0
2018-May-15 18:55N 38°28' W 008°47'0 0.0
2018-May-15 18:22N 38°28' W 008°47'0 0.0
2018-May-15 17:55N 38°28' W 008°47'0 0.0
2018-May-15 17:19N 38°28' W 008°47'0 0.0
2018-May-15 14:58N 38°28' W 008°47'0 0.0
2018-May-15 14:28N 38°28' W 008°47'0 0.0
2018-May-15 05:58N 38°28' W 008°47'0 0.0
2018-May-14 14:58N 38°28' W 008°47'0 0.0
2018-May-14 07:51N 38°28' W 008°47'0 0.7
2018-May-14 07:30N 38°28' W 008°47'4 7.2
2018-May-14 06:59N 38°29' W 008°52'3 6.8
2018-May-14 06:30N 38°29' W 008°56'3 6.8
2018-May-14 06:00N 38°27' W 008°59'4 8.2
2018-May-14 05:30N 38°23' W 009°01'4 8.0
2018-May-14 05:00N 38°19' W 009°03'4 7.9
2018-May-14 04:30N 38°16' W 009°06'4 7.9
2018-May-14 04:00N 38°12' W 009°08'4 7.8
2018-May-14 03:30N 38°09' W 009°11'4 8.3
2018-May-14 03:00N 38°06' W 009°13'510.9
2018-May-14 02:30N 38°01' W 009°17'510.7
2018-May-14 02:00N 37°56' W 009°20'510.5
2018-May-14 01:30N 37°52' W 009°23'510.5
2018-May-14 01:00N 37°47' W 009°26'510.1
2018-May-14 00:30N 37°42' W 009°30'4 8.3
2018-May-14 00:00N 37°39' W 009°31'  
2018-May-11 12:43N 28°31' W 014°43'210.9
2018-May-11 12:30N 28°29' W 014°44'611.1
2018-May-11 12:00N 28°24' W 014°47'611.2
2018-May-11 11:30N 28°19' W 014°49'711.3
2018-May-11 10:55N 28°13' W 014°52'511.1
2018-May-11 10:30N 28°08' W 014°54'510.9
2018-May-11 10:00N 28°03' W 014°56'611.0
2018-May-11 09:30N 27°58' W 014°58'510.9
2018-May-11 09:00N 27°53' W 015°01'  

Dump ship's entire track history